createdAt,value
2019-03-12T00:01:01.992Z,1.00
2019-03-12T00:03:32.008Z,4.00
2019-03-12T00:06:01.818Z,0.80
2019-03-12T00:08:31.420Z,0.60
2019-03-12T00:11:01.204Z,3.00
2019-03-12T00:13:30.836Z,0.00
2019-03-12T00:16:00.480Z,1.00
2019-03-12T00:18:30.507Z,0.20
2019-03-12T00:21:00.134Z,3.40
2019-03-12T00:23:30.374Z,0.80
2019-03-12T00:26:00.089Z,1.00
2019-03-12T00:28:31.304Z,1.00
2019-03-12T00:31:01.264Z,2.20
2019-03-12T00:33:31.365Z,1.00
2019-03-12T00:36:01.013Z,2.60
2019-03-12T00:38:30.557Z,1.00
2019-03-12T00:41:00.140Z,2.60
2019-03-12T00:43:30.000Z,1.00
2019-03-12T00:45:59.759Z,3.00
2019-03-12T00:48:29.991Z,2.60
2019-03-12T00:51:02.158Z,1.80
2019-03-12T00:53:32.004Z,4.40
2019-03-12T00:56:01.662Z,3.00
2019-03-12T00:58:31.274Z,3.00
2019-03-12T01:01:01.065Z,3.00
2019-03-12T01:03:30.848Z,3.80
2019-03-12T01:06:00.545Z,5.20
2019-03-12T01:08:30.401Z,0.80
2019-03-12T01:11:00.056Z,3.00
2019-03-12T01:13:30.324Z,4.00
2019-03-12T01:16:01.121Z,2.80
2019-03-12T01:18:30.691Z,4.00
2019-03-12T01:21:00.363Z,4.00
2019-03-12T01:23:30.643Z,3.60
2019-03-12T01:26:00.771Z,2.60
2019-03-12T01:28:30.275Z,7.40
2019-03-12T01:30:59.883Z,5.80
2019-03-12T01:33:30.008Z,3.00
2019-03-12T01:35:59.638Z,5.60
2019-03-12T01:38:29.321Z,6.20
2019-03-12T01:40:59.062Z,4.00
2019-03-12T01:43:28.917Z,7.00
2019-03-12T01:45:58.699Z,3.00
2019-03-12T01:48:28.826Z,3.00
2019-03-12T01:50:58.573Z,3.80
2019-03-12T01:53:28.229Z,7.40
2019-03-12T01:55:57.743Z,6.00
2019-03-12T01:58:27.583Z,6.00
2019-03-12T02:00:57.715Z,6.60
2019-03-12T02:03:27.294Z,7.00
2019-03-12T02:05:56.882Z,6.00
2019-03-12T02:08:26.798Z,6.40
2019-03-12T02:10:56.355Z,6.20
2019-03-12T02:13:26.006Z,4.60
2019-03-12T02:15:56.076Z,6.40
2019-03-12T02:18:25.779Z,6.00
2019-03-12T02:20:55.481Z,8.80
2019-03-12T02:23:25.136Z,6.80
2019-03-12T02:25:54.759Z,7.20
2019-03-12T02:28:24.566Z,8.00
2019-03-12T02:30:54.398Z,9.20
2019-03-12T02:33:24.216Z,7.40
2019-03-12T02:35:53.925Z,9.00
2019-03-12T02:38:24.054Z,9.00
2019-03-12T02:40:53.719Z,8.20
2019-03-12T02:43:23.482Z,8.20
2019-03-12T02:45:53.279Z,8.80
2019-03-12T02:48:23.078Z,11.40
2019-03-12T02:50:52.818Z,8.60
2019-03-12T02:53:22.415Z,11.60
2019-03-12T02:55:52.091Z,11.20
2019-03-12T02:58:22.558Z,9.20
2019-03-12T03:00:52.304Z,8.00
2019-03-12T03:03:22.365Z,8.40
2019-03-12T03:06:11.065Z,9.00
2019-03-12T03:08:40.758Z,10.80
2019-03-12T03:11:10.644Z,9.20
2019-03-12T03:13:40.613Z,9.00
2019-03-12T03:16:10.823Z,12.00
2019-03-12T03:18:40.463Z,9.20
2019-03-12T03:21:09.985Z,6.00
2019-03-12T03:23:39.750Z,10.40
2019-03-12T03:26:09.779Z,9.00
2019-03-12T03:28:39.359Z,16.40
2019-03-12T03:31:10.825Z,12.80
2019-03-12T03:33:40.557Z,12.40
2019-03-12T03:36:11.265Z,12.00
2019-03-12T03:38:41.384Z,12.40
2019-03-12T03:41:14.269Z,7.80
2019-03-12T03:43:44.219Z,12.40
2019-03-12T03:46:14.525Z,9.40
2019-03-12T03:48:44.305Z,10.00
2019-03-12T03:51:14.935Z,11.00
2019-03-12T03:53:44.897Z,12.60
2019-03-12T03:56:14.676Z,8.60
2019-03-12T03:58:44.311Z,12.60
2019-03-12T04:01:14.220Z,8.40
2019-03-12T04:03:44.246Z,7.80
2019-03-12T04:06:14.011Z,9.80
2019-03-12T04:08:43.923Z,7.40
2019-03-12T04:11:13.845Z,10.00
2019-03-12T04:13:43.949Z,7.20
2019-03-12T04:16:13.719Z,7.00
2019-03-12T04:18:43.402Z,9.20
2019-03-12T04:21:13.002Z,7.00
2019-03-12T04:23:43.005Z,6.40
2019-03-12T04:26:12.673Z,6.60
2019-03-12T04:28:42.151Z,9.00
2019-03-12T04:31:11.963Z,6.00
2019-03-12T04:34:35.330Z,8.60
2019-03-12T04:37:06.710Z,3.00
2019-03-12T04:39:36.535Z,6.40
2019-03-12T04:42:06.246Z,6.00
2019-03-12T04:44:39.124Z,4.00
2019-03-12T04:47:13.169Z,7.00
2019-03-12T04:49:43.097Z,6.80
2019-03-12T04:52:14.112Z,7.00
2019-03-12T04:54:43.701Z,6.60
2019-03-12T04:57:13.116Z,5.20
2019-03-12T04:59:42.939Z,5.20
2019-03-12T05:02:12.718Z,4.00
2019-03-12T05:04:42.514Z,4.40
2019-03-12T05:07:12.055Z,6.00
2019-03-12T05:09:42.148Z,5.20
2019-03-12T05:12:12.568Z,4.40
2019-03-12T05:14:44.433Z,4.40
2019-03-12T05:17:24.360Z,5.60
2019-03-12T05:19:53.829Z,6.20
2019-03-12T05:22:25.022Z,4.80
2019-03-12T05:24:54.578Z,1.00
2019-03-12T05:27:25.096Z,4.00
2019-03-12T05:29:54.860Z,6.00
2019-03-12T05:32:27.455Z,6.00
2019-03-12T05:35:01.514Z,4.00
2019-03-12T05:37:31.000Z,3.20
2019-03-12T05:40:01.630Z,3.00
2019-03-12T05:42:31.338Z,5.80
2019-03-12T05:45:01.396Z,6.80
2019-03-12T05:47:31.172Z,4.00
2019-03-12T05:50:00.789Z,0.40
2019-03-12T05:52:30.964Z,3.20
2019-03-12T05:55:00.755Z,5.60
2019-03-12T05:57:30.319Z,4.00
2019-03-12T05:59:59.798Z,3.80
2019-03-12T06:02:29.416Z,3.40
2019-03-12T06:04:59.027Z,2.60
2019-03-12T06:07:29.297Z,1.40
2019-03-12T06:09:59.193Z,3.40
2019-03-12T06:12:29.370Z,3.00
2019-03-12T06:14:58.908Z,2.60
2019-03-12T06:17:29.080Z,1.00
2019-03-12T06:19:58.455Z,4.00
2019-03-12T06:22:28.300Z,1.00
2019-03-12T06:24:58.353Z,1.00
2019-03-12T06:27:27.827Z,3.00
2019-03-12T06:29:57.691Z,3.80
2019-03-12T06:32:37.452Z,3.20
2019-03-12T06:35:15.034Z,1.00
2019-03-12T06:38:09.112Z,3.60
2019-03-12T06:40:43.756Z,1.40
2019-03-12T06:43:31.098Z,3.00
2019-03-12T06:46:22.888Z,5.60
2019-03-12T06:49:09.911Z,1.00
2019-03-12T06:51:56.654Z,3.00
2019-03-12T06:54:57.239Z,1.00
2019-03-12T06:57:53.963Z,4.00
2019-03-12T07:00:43.614Z,3.00
2019-03-12T07:03:27.807Z,3.40
2019-03-12T07:06:17.055Z,3.40
2019-03-12T07:09:08.711Z,1.80
2019-03-12T07:11:51.716Z,1.00
2019-03-12T07:14:39.024Z,1.00
2019-03-12T07:17:15.018Z,1.00
2019-03-12T07:20:06.442Z,1.00
2019-03-12T07:22:47.335Z,4.00
2019-03-12T07:25:35.444Z,1.80
2019-03-12T07:28:23.308Z,2.20
2019-03-12T07:31:08.054Z,2.60
2019-03-12T07:33:46.627Z,1.00
2019-03-12T07:36:27.032Z,3.00
2019-03-12T07:39:04.636Z,2.60
2019-03-12T07:41:39.292Z,1.00
2019-03-12T07:44:26.249Z,2.60
2019-03-12T07:47:17.568Z,1.00
2019-03-12T07:50:11.937Z,3.20
2019-03-12T07:53:00.702Z,1.00
2019-03-12T07:55:45.180Z,1.80
2019-03-12T07:58:50.786Z,0.80
2019-03-12T08:01:39.383Z,3.00
2019-03-12T08:04:43.486Z,1.40
2019-03-12T08:07:34.432Z,1.00
2019-03-12T08:10:15.932Z,3.60
2019-03-12T08:13:02.747Z,1.00
2019-03-12T08:15:44.284Z,1.00
2019-03-12T08:18:35.502Z,1.00
2019-03-12T08:21:22.971Z,1.00
2019-03-12T08:24:06.240Z,0.80
2019-03-12T08:26:54.949Z,1.80
2019-03-12T08:29:46.511Z,1.00
2019-03-12T08:32:47.192Z,1.00
2019-03-12T08:35:50.815Z,4.00
2019-03-12T08:38:46.526Z,1.80
2019-03-12T08:41:38.249Z,0.80
2019-03-12T08:44:16.348Z,1.00
2019-03-12T08:47:05.259Z,2.20
2019-03-12T08:49:44.910Z,1.00
2019-03-12T08:52:40.103Z,1.40
2019-03-12T08:55:28.863Z,4.00
2019-03-12T08:58:08.498Z,1.00
2019-03-12T09:01:07.389Z,1.00
2019-03-12T09:04:03.417Z,1.80
2019-03-12T09:06:40.069Z,1.40
2019-03-12T09:09:28.793Z,1.00
2019-03-12T09:12:26.105Z,1.00
2019-03-12T09:15:14.999Z,4.00
2019-03-12T09:18:04.122Z,3.00
2019-03-12T09:20:44.307Z,3.80
2019-03-12T09:23:31.556Z,1.00
2019-03-12T09:26:11.393Z,1.00
2019-03-12T09:29:12.283Z,1.00
2019-03-12T09:31:59.707Z,1.00
2019-03-12T09:34:46.218Z,3.00
2019-03-12T09:37:36.600Z,1.00
2019-03-12T09:40:23.744Z,1.00
2019-03-12T09:43:14.118Z,1.80
2019-03-12T09:45:54.005Z,3.20
2019-03-12T09:48:41.102Z,1.00
2019-03-12T09:51:21.130Z,1.00
2019-03-12T09:54:26.579Z,1.00
2019-03-12T09:57:15.054Z,0.60
2019-03-12T10:00:15.609Z,0.00
2019-03-12T10:02:46.335Z,1.00
2019-03-12T10:05:23.700Z,1.00
2019-03-12T10:08:08.611Z,0.00
2019-03-12T10:10:57.196Z,3.00
2019-03-12T10:13:48.023Z,1.00
2019-03-12T10:16:35.377Z,3.00
2019-03-12T10:19:20.329Z,1.00
2019-03-12T10:22:13.905Z,0.60
2019-03-12T10:25:01.167Z,3.00
2019-03-12T10:27:49.876Z,1.00
2019-03-12T10:30:47.154Z,3.00
2019-03-12T10:33:41.532Z,0.20
2019-03-12T10:36:20.985Z,0.20
2019-03-12T10:39:42.316Z,0.20
2019-03-12T10:42:21.891Z,1.00
2019-03-12T10:45:00.987Z,3.40
2019-03-12T10:47:31.099Z,0.80
2019-03-12T10:50:00.988Z,0.00
2019-03-12T10:52:31.022Z,0.40
2019-03-12T10:55:12.413Z,1.00
2019-03-12T10:57:32.091Z,2.60
2019-03-12T11:00:02.020Z,1.00
2019-03-12T11:02:31.668Z,2.20
2019-03-12T11:05:01.196Z,1.00
2019-03-12T11:07:30.956Z,1.80
2019-03-12T11:10:00.513Z,0.00
2019-03-12T11:12:30.196Z,0.80
2019-03-12T11:14:59.815Z,0.80
2019-03-12T11:17:29.254Z,0.20
2019-03-12T11:19:59.666Z,1.00
2019-03-12T11:22:29.754Z,1.00
2019-03-12T11:24:59.220Z,0.00
2019-03-12T11:27:28.876Z,0.60
2019-03-12T11:29:59.142Z,1.00
2019-03-12T11:32:28.577Z,0.00
2019-03-12T11:34:58.615Z,0.80
2019-03-12T11:37:28.154Z,0.60
2019-03-12T11:39:57.977Z,1.80
2019-03-12T11:42:30.571Z,1.00
2019-03-12T11:45:13.616Z,2.60
2019-03-12T11:47:35.034Z,3.40
2019-03-12T11:50:06.341Z,0.80
2019-03-12T11:52:36.416Z,0.40
2019-03-12T11:55:06.851Z,1.40
2019-03-12T11:57:36.791Z,1.00
2019-03-12T12:00:07.944Z,3.00
2019-03-12T12:02:37.941Z,0.20
2019-03-12T12:05:08.414Z,1.00
2019-03-12T12:07:39.673Z,1.00
2019-03-12T12:10:12.231Z,1.00
2019-03-12T12:12:48.233Z,0.40
2019-03-12T12:15:19.095Z,0.00
2019-03-12T12:17:52.768Z,1.40
2019-03-12T12:20:29.510Z,0.60
2019-03-12T12:22:55.522Z,1.00
2019-03-12T12:25:25.303Z,2.60
2019-03-12T12:27:54.865Z,1.00
2019-03-12T12:30:25.112Z,0.00
2019-03-12T12:32:55.069Z,1.00
2019-03-12T12:35:24.583Z,0.40
2019-03-12T12:37:54.231Z,1.00
2019-03-12T12:40:24.739Z,1.00
2019-03-12T12:42:54.341Z,3.20
2019-03-12T12:45:24.935Z,1.00
2019-03-12T12:47:54.543Z,0.80
2019-03-12T12:50:24.888Z,3.00
2019-03-12T12:52:57.351Z,1.80
2019-03-12T12:55:26.864Z,0.80
2019-03-12T12:57:56.860Z,2.40
2019-03-12T13:00:26.574Z,3.00
2019-03-12T13:02:56.318Z,0.00
2019-03-12T13:05:26.122Z,0.80
2019-03-12T13:07:55.589Z,3.00
2019-03-12T13:10:26.147Z,2.60
2019-03-12T13:12:56.050Z,0.00
2019-03-12T13:15:26.605Z,3.00
2019-03-12T13:17:56.711Z,1.00
2019-03-12T13:20:30.195Z,1.00
2019-03-12T13:22:59.794Z,1.00
2019-03-12T13:25:29.256Z,3.20
2019-03-12T13:27:58.722Z,1.00
2019-03-12T13:30:28.539Z,0.00
2019-03-12T13:32:59.077Z,1.00
2019-03-12T13:35:29.017Z,1.00
2019-03-12T13:37:59.211Z,1.40
2019-03-12T13:40:30.241Z,2.60
2019-03-12T13:42:59.904Z,1.00
2019-03-12T13:45:29.990Z,0.20
2019-03-12T13:47:59.460Z,0.40
2019-03-12T13:50:29.213Z,1.00
2019-03-12T13:52:59.100Z,1.00
2019-03-12T13:55:28.938Z,1.00
2019-03-12T13:58:02.074Z,0.00
2019-03-12T14:00:33.486Z,0.00
2019-03-12T14:03:04.863Z,0.20
2019-03-12T14:05:44.937Z,1.80
2019-03-12T14:08:14.741Z,1.00
2019-03-12T14:10:44.455Z,0.40
2019-03-12T14:13:15.346Z,0.00
2019-03-12T14:15:47.450Z,0.00
2019-03-12T14:18:17.062Z,0.00
2019-03-12T14:20:52.610Z,0.80
2019-03-12T14:23:36.571Z,0.60
2019-03-12T14:26:06.227Z,0.00
2019-03-12T14:28:35.597Z,0.00
2019-03-12T14:31:05.377Z,0.00
2019-03-12T14:33:35.384Z,0.00
2019-03-12T14:36:04.914Z,1.00
2019-03-12T14:38:34.329Z,1.00
2019-03-12T14:41:06.386Z,0.20
2019-03-12T14:43:35.732Z,1.40
2019-03-12T14:46:05.846Z,3.00
2019-03-12T14:48:52.710Z,3.00
2019-03-12T14:51:51.674Z,1.80
2019-03-12T14:54:21.358Z,2.60
2019-03-12T14:56:51.502Z,1.00
2019-03-12T14:59:21.144Z,1.80
2019-03-12T15:01:51.282Z,3.00
2019-03-12T15:04:20.903Z,3.80
2019-03-12T15:06:50.725Z,5.60
2019-03-12T15:09:20.131Z,3.40
2019-03-12T15:11:49.543Z,3.00
2019-03-12T15:14:19.330Z,3.00
2019-03-12T15:16:51.719Z,3.00
2019-03-12T15:19:25.752Z,2.20
2019-03-12T15:21:57.880Z,1.80
2019-03-12T15:24:28.018Z,0.60
2019-03-12T15:26:57.649Z,4.00
2019-03-12T15:29:31.140Z,7.80
2019-03-12T15:32:04.503Z,0.80
2019-03-12T15:37:12.799Z,1.80
2019-03-12T15:39:46.377Z,0.00
2019-03-12T15:42:16.114Z,1.80
2019-03-12T15:44:45.577Z,1.00
2019-03-12T15:47:18.379Z,1.80
2019-03-12T15:49:50.206Z,1.00
2019-03-12T15:52:20.049Z,1.00
2019-03-12T15:54:49.481Z,0.20
2019-03-12T15:57:19.160Z,1.40
2019-03-12T15:59:48.966Z,0.00
2019-03-12T16:02:18.934Z,3.00
2019-03-12T16:04:48.930Z,1.00
2019-03-12T16:07:18.308Z,1.00
2019-03-12T16:09:48.051Z,0.40
2019-03-12T16:12:18.032Z,1.00
2019-03-12T16:14:47.726Z,1.80
2019-03-12T16:17:17.591Z,0.00
2019-03-12T16:19:47.179Z,3.00
2019-03-12T16:22:16.795Z,0.00
2019-03-12T16:24:47.097Z,1.00
2019-03-12T16:27:17.077Z,1.00
2019-03-12T16:29:47.109Z,0.60
2019-03-12T16:32:16.980Z,0.00
2019-03-12T16:34:46.435Z,0.60
2019-03-12T16:37:24.306Z,0.00
2019-03-12T16:39:54.141Z,1.00
2019-03-12T16:42:34.559Z,0.20
2019-03-12T16:44:55.098Z,0.60
2019-03-12T16:47:25.701Z,1.00
2019-03-12T16:49:59.973Z,1.00
2019-03-12T16:52:29.292Z,1.00
2019-03-12T16:54:58.740Z,0.80
2019-03-12T16:57:28.849Z,1.00
2019-03-12T16:59:59.102Z,1.40
2019-03-12T17:02:31.087Z,1.00
2019-03-12T17:05:03.899Z,0.00
2019-03-12T17:07:36.334Z,1.40
2019-03-12T17:10:07.127Z,0.00
2019-03-12T17:12:40.881Z,2.20
2019-03-12T17:15:11.807Z,11.40
2019-03-12T17:17:41.523Z,0.00
2019-03-12T17:20:12.174Z,1.00
2019-03-12T17:22:44.488Z,1.00
2019-03-12T17:25:14.289Z,1.00
2019-03-12T17:27:46.866Z,1.00
2019-03-12T17:30:17.819Z,0.00
2019-03-12T17:32:48.151Z,2.60
2019-03-12T17:35:20.286Z,0.00
2019-03-12T17:37:53.396Z,1.00
2019-03-12T17:40:30.425Z,0.00
2019-03-12T17:43:01.679Z,0.00
2019-03-12T17:45:32.620Z,2.60
2019-03-12T17:48:02.763Z,2.60
2019-03-12T17:50:34.239Z,1.00
2019-03-12T17:53:09.168Z,0.00
2019-03-12T17:55:39.683Z,1.00
2019-03-12T17:58:09.194Z,0.00
2019-03-12T18:00:42.225Z,0.00
2019-03-12T18:03:17.991Z,1.00
2019-03-12T18:05:47.139Z,1.00
2019-03-12T18:08:17.364Z,0.80
2019-03-12T18:10:50.343Z,0.60
2019-03-12T18:13:20.617Z,0.00
2019-03-12T18:15:50.183Z,1.00
2019-03-12T18:18:19.611Z,0.20
2019-03-12T18:20:55.093Z,0.00
2019-03-12T18:23:25.689Z,1.00
2019-03-12T18:25:56.078Z,1.00
2019-03-12T18:28:30.503Z,0.00
2019-03-12T18:31:00.247Z,1.00
2019-03-12T18:33:30.063Z,0.20
2019-03-12T18:36:08.835Z,1.00
2019-03-12T18:38:38.340Z,3.00
2019-03-12T18:41:15.203Z,0.80
2019-03-12T18:43:45.236Z,0.40
2019-03-12T18:46:15.190Z,1.00
2019-03-12T18:48:47.670Z,1.00
2019-03-12T18:51:17.385Z,1.00
2019-03-12T18:53:47.099Z,0.40
2019-03-12T18:56:16.755Z,0.00
2019-03-12T18:58:48.447Z,0.40
2019-03-12T19:01:21.224Z,0.00
2019-03-12T19:03:50.654Z,0.80
2019-03-12T19:06:23.604Z,0.00
2019-03-12T19:08:53.445Z,1.00
2019-03-12T19:11:23.194Z,1.00
2019-03-12T19:13:53.309Z,0.00
2019-03-12T19:16:24.962Z,0.00
2019-03-12T19:19:00.698Z,1.00
2019-03-12T19:21:30.578Z,0.80
2019-03-12T19:24:03.208Z,1.00
2019-03-12T19:26:35.669Z,1.00
2019-03-12T19:29:07.943Z,1.00
2019-03-12T19:32:07.695Z,1.00
2019-03-12T19:34:38.120Z,0.60
2019-03-12T19:37:16.990Z,0.80
2019-03-12T19:39:47.102Z,0.80
2019-03-12T19:42:16.978Z,2.60
2019-03-12T19:44:47.696Z,1.00
2019-03-12T19:47:20.293Z,1.40
2019-03-12T19:49:49.913Z,1.00
2019-03-12T19:52:23.095Z,1.00
2019-03-12T19:54:52.768Z,3.00
2019-03-12T19:57:22.294Z,1.40
2019-03-12T19:59:51.882Z,1.80
2019-03-12T20:02:21.456Z,1.00
2019-03-12T20:04:51.132Z,1.80
2019-03-12T20:07:20.613Z,3.00
2019-03-12T20:09:56.633Z,0.20
2019-03-12T20:13:12.369Z,1.00
2019-03-12T20:16:22.104Z,1.00
2019-03-12T20:19:20.992Z,1.00
2019-03-12T20:22:22.717Z,0.40
2019-03-12T20:25:35.996Z,3.00
2019-03-12T20:28:31.126Z,0.60
2019-03-12T20:31:43.258Z,0.80
2019-03-12T20:35:12.131Z,1.00
2019-03-12T20:38:19.175Z,0.00
2019-03-12T20:41:38.664Z,0.00
2019-03-12T20:44:58.721Z,1.00
2019-03-12T20:48:14.225Z,1.00
2019-03-12T20:51:31.491Z,0.00
2019-03-12T20:54:47.371Z,1.00
2019-03-12T20:58:06.353Z,1.00
2019-03-12T21:01:21.485Z,1.00
2019-03-12T21:04:38.084Z,1.00
2019-03-12T21:07:47.784Z,1.00
2019-03-12T21:11:01.837Z,0.80
2019-03-12T21:14:11.285Z,1.00
2019-03-12T21:17:21.844Z,1.00
2019-03-12T21:20:42.276Z,1.00
2019-03-12T21:23:22.366Z,0.00
2019-03-12T21:26:15.126Z,0.20
2019-03-12T21:29:35.062Z,0.20
2019-03-12T21:32:05.190Z,1.80
2019-03-12T21:34:37.157Z,2.20
2019-03-12T21:37:06.964Z,3.00
2019-03-12T21:39:36.725Z,3.20
2019-03-12T21:42:07.002Z,1.80
2019-03-12T21:44:38.091Z,1.00
2019-03-12T21:47:08.148Z,1.00
2019-03-12T21:49:39.641Z,0.00
2019-03-12T21:52:09.592Z,0.00
2019-03-12T21:54:39.733Z,0.00
2019-03-12T21:57:09.478Z,0.00
2019-03-12T21:59:41.768Z,0.00
2019-03-12T22:02:11.730Z,0.00
2019-03-12T22:04:41.185Z,0.00
2019-03-12T22:07:11.288Z,0.00
2019-03-12T22:09:40.897Z,0.00
2019-03-12T22:12:12.094Z,0.00
2019-03-12T22:14:41.707Z,0.00
2019-03-12T22:17:12.392Z,0.00
2019-03-12T22:19:41.959Z,0.00
2019-03-12T22:22:36.542Z,0.00
2019-03-12T22:25:08.498Z,0.00
2019-03-12T22:27:38.312Z,0.60
2019-03-12T22:30:12.018Z,0.00
2019-03-12T22:32:42.108Z,0.00
2019-03-12T22:35:12.104Z,1.00
2019-03-12T22:37:41.713Z,1.00
2019-03-12T22:40:12.121Z,1.80
2019-03-12T22:42:43.228Z,3.00
2019-03-12T22:45:12.812Z,0.40
2019-03-12T22:47:42.815Z,1.00
2019-03-12T22:50:12.599Z,2.20
2019-03-12T22:52:43.033Z,1.40
2019-03-12T22:55:12.849Z,3.00
2019-03-12T22:57:44.702Z,2.60
2019-03-12T23:00:15.563Z,1.00
2019-03-12T23:02:44.971Z,2.20
2019-03-12T23:05:14.576Z,3.00
2019-03-12T23:07:45.086Z,3.00
2019-03-12T23:10:14.899Z,3.00
2019-03-12T23:12:44.523Z,3.00
2019-03-12T23:15:14.394Z,2.60
2019-03-12T23:17:46.593Z,3.60
2019-03-12T23:20:16.388Z,3.00
2019-03-12T23:22:45.952Z,0.00
2019-03-12T23:25:16.316Z,3.00
2019-03-12T23:27:45.900Z,3.60
2019-03-12T23:30:15.934Z,1.00
2019-03-12T23:32:46.383Z,3.00
2019-03-12T23:35:16.134Z,6.00
2019-03-12T23:37:46.290Z,7.80
2019-03-12T23:40:16.043Z,4.00
2019-03-12T23:42:47.164Z,5.60
2019-03-12T23:45:18.218Z,4.00
2019-03-12T23:47:50.122Z,5.20
2019-03-12T23:50:19.586Z,5.20
2019-03-12T23:52:49.664Z,3.00
2019-03-12T23:55:19.942Z,6.60
2019-03-12T23:57:49.506Z,5.20
